createdAt,value
2022-12-08T00:00:05.658Z,15.20
2022-12-08T00:02:38.817Z,16.48
2022-12-08T00:05:24.462Z,14.70
2022-12-08T00:08:09.730Z,15.32
2022-12-08T00:10:51.798Z,15.98
2022-12-08T00:13:18.437Z,14.98
2022-12-08T00:15:45.232Z,16.90
2022-12-08T00:18:12.121Z,18.35
2022-12-08T00:20:38.762Z,18.50
2022-12-08T00:23:05.442Z,18.60
2022-12-08T00:25:35.135Z,19.05
2022-12-08T00:28:01.781Z,20.35
2022-12-08T00:30:28.497Z,20.27
2022-12-08T00:32:55.336Z,20.88
2022-12-08T00:35:24.071Z,20.80
2022-12-08T00:37:57.548Z,23.63
2022-12-08T00:40:27.260Z,22.65
2022-12-08T00:42:53.883Z,23.20
2022-12-08T00:45:20.605Z,23.83
2022-12-08T00:47:47.305Z,24.38
2022-12-08T00:50:13.955Z,23.52
2022-12-08T00:52:40.610Z,24.17
2022-12-08T00:55:07.586Z,24.65
2022-12-08T00:57:34.356Z,24.10
2022-12-08T01:00:01.159Z,24.63
2022-12-08T01:02:28.063Z,24.48
2022-12-08T01:04:54.701Z,25.23
2022-12-08T01:07:21.360Z,27.42
2022-12-08T01:09:47.972Z,26.60
2022-12-08T01:12:14.600Z,26.67
2022-12-08T01:14:41.329Z,25.58
2022-12-08T01:17:08.216Z,26.17
2022-12-08T01:19:34.892Z,26.95
2022-12-08T01:22:01.496Z,27.90
2022-12-08T01:24:28.142Z,26.17
2022-12-08T01:26:54.777Z,25.42
2022-12-08T01:29:21.384Z,27.65
2022-12-08T01:31:48.048Z,27.92
2022-12-08T01:34:15.031Z,27.40
2022-12-08T01:36:44.158Z,26.13
2022-12-08T01:39:16.042Z,25.75
2022-12-08T01:41:43.768Z,25.13
2022-12-08T01:44:13.193Z,24.17
2022-12-08T01:46:42.872Z,25.20
2022-12-08T01:49:27.652Z,25.98
2022-12-08T01:52:15.812Z,23.52
2022-12-08T01:55:04.977Z,22.48
2022-12-08T01:57:36.612Z,23.05
2022-12-08T02:02:48.025Z,21.42
2022-12-08T02:05:16.251Z,21.50
2022-12-08T02:07:44.413Z,21.77
2022-12-08T02:10:16.266Z,23.05
2022-12-08T02:12:43.165Z,22.08
2022-12-08T02:15:10.283Z,23.08
2022-12-08T02:17:52.797Z,22.70
2022-12-08T02:20:31.036Z,23.58
2022-12-08T02:23:00.786Z,21.67
2022-12-08T02:26:00.990Z,22.15
2022-12-08T02:29:08.805Z,23.80
2022-12-08T02:32:15.106Z,22.58
2022-12-08T02:34:49.177Z,23.20
2022-12-08T02:37:19.336Z,23.02
2022-12-08T02:40:20.521Z,21.75
2022-12-08T02:43:00.422Z,22.57
2022-12-08T02:45:38.285Z,21.70
2022-12-08T02:48:05.627Z,22.38
2022-12-08T02:50:32.289Z,21.45
2022-12-08T02:52:58.975Z,21.13
2022-12-08T02:55:52.374Z,20.30
2022-12-08T02:58:35.216Z,19.95
2022-12-08T03:01:30.040Z,19.77
2022-12-08T03:04:23.661Z,18.27
2022-12-08T03:07:04.548Z,18.33
2022-12-08T03:09:39.806Z,19.70
2022-12-08T03:12:15.744Z,18.38
2022-12-08T03:14:46.995Z,18.65
2022-12-08T03:17:17.210Z,17.48
2022-12-08T03:19:45.855Z,17.92
2022-12-08T03:22:15.670Z,18.27
2022-12-08T03:24:44.741Z,16.08
2022-12-08T03:27:19.471Z,16.92
2022-12-08T03:29:47.739Z,16.50
2022-12-08T03:32:29.264Z,16.40
2022-12-08T03:35:00.474Z,16.90
2022-12-08T03:37:28.347Z,16.33
2022-12-08T03:39:55.602Z,16.88
2022-12-08T03:42:22.543Z,17.33
2022-12-08T03:44:49.253Z,16.77
2022-12-08T03:47:15.879Z,16.92
2022-12-08T03:49:42.515Z,16.50
2022-12-08T03:52:09.150Z,17.38
2022-12-08T03:54:35.835Z,16.23
2022-12-08T03:57:02.436Z,17.25
2022-12-08T03:59:29.101Z,16.67
2022-12-08T04:01:55.802Z,15.23
2022-12-08T04:04:22.498Z,15.80
2022-12-08T04:06:50.325Z,16.67
2022-12-08T04:09:17.295Z,15.95
2022-12-08T04:11:43.934Z,16.25
2022-12-08T04:14:10.589Z,16.45
2022-12-08T04:16:37.373Z,15.35
2022-12-08T04:19:04.054Z,16.15
2022-12-08T04:21:30.746Z,15.52
2022-12-08T04:24:01.064Z,16.50
2022-12-08T04:26:28.637Z,17.87
2022-12-08T04:28:55.252Z,17.65
2022-12-08T04:31:21.937Z,17.85
2022-12-08T04:33:48.679Z,17.80
2022-12-08T04:36:15.549Z,18.08
2022-12-08T04:38:42.197Z,18.77
2022-12-08T04:41:08.941Z,19.75
2022-12-08T04:43:36.876Z,20.63
2022-12-08T04:46:07.230Z,19.05
2022-12-08T04:48:34.584Z,19.85
2022-12-08T04:51:01.253Z,20.95
2022-12-08T04:53:27.970Z,19.35
2022-12-08T04:55:54.674Z,20.83
2022-12-08T04:58:22.044Z,21.05
2022-12-08T05:00:49.048Z,20.73
2022-12-08T05:03:16.488Z,22.42
2022-12-08T05:05:43.874Z,22.25
2022-12-08T05:08:11.024Z,22.48
2022-12-08T05:10:38.353Z,24.00
2022-12-08T05:13:04.989Z,25.33
2022-12-08T05:15:31.677Z,26.98
2022-12-08T05:17:58.312Z,25.60
2022-12-08T05:20:24.959Z,26.83
2022-12-08T05:22:51.753Z,26.48
2022-12-08T05:25:18.403Z,26.63
2022-12-08T05:27:45.011Z,26.73
2022-12-08T05:30:11.816Z,27.98
2022-12-08T05:32:38.542Z,27.60
2022-12-08T05:35:05.598Z,25.48
2022-12-08T05:37:32.249Z,24.42
2022-12-08T05:39:58.946Z,25.00
2022-12-08T05:42:25.582Z,25.48
2022-12-08T05:44:52.836Z,23.58
2022-12-08T05:47:19.559Z,23.50
2022-12-08T05:49:46.366Z,23.23
2022-12-08T05:52:13.011Z,23.02
2022-12-08T05:54:39.685Z,21.30
2022-12-08T05:57:06.742Z,23.20
2022-12-08T05:59:33.409Z,21.92
2022-12-08T06:02:00.175Z,22.42
2022-12-08T06:04:27.014Z,23.52
2022-12-08T06:06:53.758Z,23.25
2022-12-08T06:09:20.390Z,21.63
2022-12-08T06:11:47.180Z,22.40
2022-12-08T06:14:14.036Z,23.17
2022-12-08T06:16:40.918Z,24.33
2022-12-08T06:19:07.734Z,22.13
2022-12-08T06:21:34.638Z,22.35
2022-12-08T06:24:01.329Z,21.80
2022-12-08T06:26:28.748Z,22.17
2022-12-08T06:28:55.849Z,21.55
2022-12-08T06:31:26.469Z,20.50
2022-12-08T06:33:54.970Z,21.45
2022-12-08T06:36:24.383Z,21.10
2022-12-08T06:38:51.550Z,21.30
2022-12-08T06:41:18.388Z,20.10
2022-12-08T06:43:45.109Z,20.63
2022-12-08T06:46:15.151Z,19.40
2022-12-08T06:48:41.967Z,18.33
2022-12-08T06:51:17.803Z,19.30
2022-12-08T06:53:45.578Z,19.38
2022-12-08T06:56:13.366Z,20.55
2022-12-08T06:58:40.101Z,18.63
2022-12-08T07:01:09.450Z,18.05
2022-12-08T07:03:37.272Z,20.25
2022-12-08T07:06:04.764Z,18.92
2022-12-08T07:08:33.009Z,17.85
2022-12-08T07:11:00.171Z,17.38
2022-12-08T07:13:26.816Z,17.63
2022-12-08T07:15:53.534Z,16.35
2022-12-08T07:18:20.185Z,16.45
2022-12-08T07:20:46.849Z,17.25
2022-12-08T07:23:13.574Z,17.92
2022-12-08T07:25:40.273Z,17.08
2022-12-08T07:28:12.000Z,18.25
2022-12-08T07:30:39.478Z,16.92
2022-12-08T07:33:06.526Z,19.58
2022-12-08T07:35:35.042Z,20.27
2022-12-08T07:38:02.409Z,22.50
2022-12-08T07:40:29.115Z,21.13
2022-12-08T07:42:55.798Z,23.15
2022-12-08T07:45:26.936Z,22.58
2022-12-08T07:47:57.914Z,22.55
2022-12-08T07:50:24.604Z,23.23
2022-12-08T07:52:51.295Z,24.35
2022-12-08T07:55:17.966Z,23.00
2022-12-08T07:57:44.572Z,23.13
2022-12-08T08:00:11.794Z,23.83
2022-12-08T08:02:39.966Z,25.13
2022-12-08T08:05:07.256Z,25.23
2022-12-08T08:07:33.972Z,24.23
2022-12-08T08:10:00.820Z,26.13
2022-12-08T08:12:32.150Z,25.20
2022-12-08T08:15:00.712Z,25.20
2022-12-08T08:17:28.484Z,25.33
2022-12-08T08:19:55.583Z,25.08
2022-12-08T08:22:22.268Z,24.60
2022-12-08T08:24:48.905Z,22.70
2022-12-08T08:27:15.548Z,23.60
2022-12-08T08:29:42.203Z,23.65
2022-12-08T08:32:08.851Z,22.50
2022-12-08T08:34:35.509Z,22.17
2022-12-08T08:37:02.334Z,22.13
2022-12-08T08:39:30.104Z,21.73
2022-12-08T08:41:56.901Z,20.42
2022-12-08T08:44:23.805Z,19.02
2022-12-08T08:46:50.578Z,17.60
2022-12-08T08:49:17.752Z,17.95
2022-12-08T08:51:44.475Z,19.00
2022-12-08T08:54:11.146Z,17.50
2022-12-08T08:56:37.799Z,17.83
2022-12-08T08:59:04.489Z,18.77
2022-12-08T09:01:31.407Z,17.85
2022-12-08T09:03:58.766Z,17.73
2022-12-08T09:06:25.885Z,17.88
2022-12-08T09:08:52.647Z,16.75
2022-12-08T09:11:19.635Z,16.70
2022-12-08T09:13:50.561Z,16.27
2022-12-08T09:16:17.979Z,16.75
2022-12-08T09:18:44.819Z,16.95
2022-12-08T09:21:16.441Z,17.83
2022-12-08T09:26:10.212Z,14.55
2022-12-08T09:28:37.317Z,16.23
2022-12-08T09:31:04.885Z,15.98
2022-12-08T09:33:32.042Z,15.88
2022-12-08T09:36:03.791Z,16.75
2022-12-08T09:38:30.567Z,16.05
2022-12-08T09:40:57.641Z,16.85
2022-12-08T09:43:39.922Z,16.27
2022-12-08T09:46:10.913Z,15.32
2022-12-08T09:48:42.943Z,17.77
2022-12-08T09:51:12.108Z,15.90
2022-12-08T09:53:51.032Z,16.52
2022-12-08T09:56:22.626Z,15.88
2022-12-08T09:59:20.818Z,15.35
2022-12-08T10:01:47.876Z,15.77
2022-12-08T10:04:20.609Z,14.90
2022-12-08T10:07:04.669Z,15.25
2022-12-08T10:10:00.531Z,15.02
2022-12-08T10:12:53.791Z,14.38
2022-12-08T10:16:15.322Z,15.60
2022-12-08T10:18:46.070Z,13.82
2022-12-08T10:21:18.797Z,14.05
2022-12-08T10:23:50.142Z,15.00
2022-12-08T10:26:19.866Z,14.68
2022-12-08T10:28:46.544Z,16.58
2022-12-08T10:31:21.609Z,15.27
2022-12-08T10:33:56.475Z,15.05
2022-12-08T10:36:23.171Z,15.82
2022-12-08T10:38:49.787Z,14.70
2022-12-08T10:41:18.111Z,14.52
2022-12-08T10:43:49.543Z,14.55
2022-12-08T10:46:22.504Z,14.57
2022-12-08T10:49:11.429Z,14.80
2022-12-08T10:51:39.998Z,14.23
2022-12-08T10:54:28.326Z,14.65
2022-12-08T10:56:56.810Z,13.68
2022-12-08T10:59:25.491Z,14.43
2022-12-08T11:01:54.623Z,13.85
2022-12-08T11:04:24.425Z,15.38
2022-12-08T11:06:52.766Z,13.82
2022-12-08T11:09:19.343Z,14.93
2022-12-08T11:11:58.614Z,14.65
2022-12-08T11:14:28.090Z,14.52
2022-12-08T11:17:08.162Z,14.00
2022-12-08T11:19:43.526Z,13.93
2022-12-08T11:22:35.018Z,12.75
2022-12-08T11:25:12.123Z,14.15
2022-12-08T11:27:43.312Z,15.02
2022-12-08T11:30:32.456Z,14.65
2022-12-08T11:33:19.559Z,14.25
2022-12-08T11:35:52.608Z,14.52
2022-12-08T11:38:22.717Z,14.80
2022-12-08T11:41:05.101Z,13.50
2022-12-08T11:43:34.908Z,13.07
2022-12-08T11:46:14.079Z,13.70
2022-12-08T11:49:06.988Z,13.10
2022-12-08T11:51:33.895Z,12.15
2022-12-08T11:54:12.975Z,12.45
2022-12-08T11:57:08.686Z,13.10
2022-12-08T11:59:39.472Z,13.27
2022-12-08T12:02:12.137Z,12.40
2022-12-08T12:05:06.588Z,12.98
2022-12-08T12:07:54.976Z,12.15
2022-12-08T12:10:35.300Z,11.70
2022-12-08T12:13:27.930Z,11.57
2022-12-08T12:16:28.852Z,11.80
2022-12-08T12:19:02.395Z,12.15
2022-12-08T12:21:38.659Z,13.52
2022-12-08T12:24:09.155Z,12.48
2022-12-08T12:26:39.348Z,11.52
2022-12-08T12:29:36.253Z,11.60
2022-12-08T12:32:06.964Z,12.05
2022-12-08T12:34:37.197Z,11.95
2022-12-08T12:37:10.872Z,11.30
2022-12-08T12:39:59.723Z,12.02
2022-12-08T12:42:47.143Z,12.77
2022-12-08T12:45:16.506Z,11.97
2022-12-08T12:48:03.412Z,12.25
2022-12-08T12:50:33.362Z,11.25
2022-12-08T12:53:26.284Z,11.45
2022-12-08T12:55:59.381Z,10.80
2022-12-08T12:58:29.502Z,10.07
2022-12-08T13:01:08.569Z,11.60
2022-12-08T13:03:36.336Z,11.68
2022-12-08T13:06:03.718Z,12.77
2022-12-08T13:08:31.319Z,12.38
2022-12-08T13:11:02.935Z,10.85
2022-12-08T13:13:30.346Z,10.90
2022-12-08T13:16:18.541Z,12.07
2022-12-08T13:18:52.071Z,11.18
2022-12-08T13:21:21.338Z,12.10
2022-12-08T13:24:08.472Z,11.10
2022-12-08T13:26:50.546Z,12.60
2022-12-08T13:29:22.498Z,11.27
2022-12-08T13:31:51.441Z,11.10
2022-12-08T13:34:41.557Z,11.45
2022-12-08T13:37:10.984Z,11.15
2022-12-08T13:39:40.750Z,11.55
2022-12-08T13:42:46.825Z,10.90
2022-12-08T13:45:39.648Z,10.23
2022-12-08T13:48:55.931Z,10.43
2022-12-08T13:57:10.226Z,9.95
2022-12-08T13:59:44.899Z,10.70
2022-12-08T14:02:39.546Z,10.60
2022-12-08T14:05:18.216Z,10.02
2022-12-08T14:07:48.321Z,12.00
2022-12-08T14:10:23.178Z,14.00
2022-12-08T14:12:58.044Z,15.15
2022-12-08T14:15:26.489Z,14.50
2022-12-08T14:17:57.233Z,13.63
2022-12-08T14:20:33.848Z,14.10
2022-12-08T14:23:09.230Z,13.25
2022-12-08T14:25:36.064Z,12.65
2022-12-08T14:28:04.539Z,12.88
2022-12-08T14:30:33.232Z,12.52
2022-12-08T14:33:02.149Z,10.98
2022-12-08T14:35:34.265Z,12.27
2022-12-08T14:38:06.326Z,12.10
2022-12-08T14:40:37.194Z,12.38
2022-12-08T14:43:10.045Z,12.43
2022-12-08T14:45:42.928Z,13.43
2022-12-08T14:48:27.532Z,13.23
2022-12-08T14:51:03.338Z,12.70
2022-12-08T14:53:39.977Z,12.77
2022-12-08T14:56:15.390Z,12.40
2022-12-08T14:58:42.108Z,13.35
2022-12-08T15:01:14.193Z,12.65
2022-12-08T15:03:43.573Z,12.55
2022-12-08T15:09:00.888Z,11.80
2022-12-08T15:11:32.689Z,13.00
2022-12-08T15:13:59.897Z,14.05
2022-12-08T15:16:38.210Z,14.93
2022-12-08T15:19:28.347Z,14.30
2022-12-08T15:22:08.640Z,14.07
2022-12-08T15:24:35.691Z,14.18
2022-12-08T15:27:04.179Z,13.65
2022-12-08T15:29:31.130Z,14.07
2022-12-08T15:32:00.561Z,14.35
2022-12-08T15:34:27.347Z,13.32
2022-12-08T15:36:55.239Z,15.05
2022-12-08T15:39:27.719Z,14.27
2022-12-08T15:41:54.372Z,15.48
2022-12-08T15:44:21.003Z,14.80
2022-12-08T15:46:47.698Z,15.55
2022-12-08T15:49:18.061Z,15.82
2022-12-08T15:51:45.511Z,15.30
2022-12-08T15:54:12.153Z,15.65
2022-12-08T15:57:18.045Z,17.20
2022-12-08T15:59:35.941Z,15.35
2022-12-08T16:02:02.626Z,14.75
2022-12-08T16:07:26.978Z,15.32
2022-12-08T16:09:55.153Z,13.63
2022-12-08T16:18:23.808Z,13.35
2022-12-08T16:21:12.441Z,13.43
2022-12-08T16:23:45.209Z,13.70
2022-12-08T16:26:43.997Z,13.48
2022-12-08T16:29:05.816Z,13.02
2022-12-08T16:31:33.330Z,13.45
2022-12-08T16:34:00.197Z,12.43
2022-12-08T16:36:26.882Z,11.85
2022-12-08T16:38:53.517Z,12.13
2022-12-08T16:41:38.697Z,10.38
2022-12-08T16:44:06.511Z,10.02
2022-12-08T16:46:33.494Z,10.77
2022-12-08T16:49:00.242Z,10.27
2022-12-08T16:51:27.733Z,11.52
2022-12-08T16:53:55.437Z,10.52
2022-12-08T16:56:26.195Z,9.98
2022-12-08T16:58:55.550Z,10.63
2022-12-08T17:01:23.469Z,10.27
2022-12-08T17:04:07.440Z,10.23
2022-12-08T17:06:36.958Z,10.25
2022-12-08T17:09:03.887Z,9.77
2022-12-08T17:11:36.225Z,9.65
2022-12-08T17:14:06.090Z,10.25
2022-12-08T17:16:32.864Z,10.45
2022-12-08T17:18:59.538Z,9.90
2022-12-08T17:21:26.170Z,11.30
2022-12-08T17:23:52.887Z,11.93
2022-12-08T17:26:19.517Z,11.13
2022-12-08T17:29:01.918Z,11.80
2022-12-08T17:31:31.228Z,10.90
2022-12-08T17:34:00.765Z,10.27
2022-12-08T17:36:28.969Z,10.85
2022-12-08T17:38:56.851Z,10.75
2022-12-08T17:41:23.583Z,10.73
2022-12-08T17:43:50.439Z,11.32
2022-12-08T17:46:18.559Z,12.25
2022-12-08T17:48:45.560Z,11.60
2022-12-08T17:51:12.323Z,11.73
2022-12-08T17:53:40.628Z,12.82
2022-12-08T17:56:14.353Z,12.45
2022-12-08T17:58:41.056Z,12.60
2022-12-08T18:01:09.660Z,13.30
2022-12-08T18:03:37.204Z,14.85
2022-12-08T18:06:08.910Z,12.98
2022-12-08T18:08:35.962Z,13.48
2022-12-08T18:11:03.734Z,13.93
2022-12-08T18:13:31.457Z,14.38
2022-12-08T18:15:58.174Z,14.85
2022-12-08T18:18:24.780Z,13.60
2022-12-08T18:20:51.421Z,14.27
2022-12-08T18:23:18.551Z,13.48
2022-12-08T18:25:45.228Z,13.50
2022-12-08T18:28:12.016Z,13.57
2022-12-08T18:30:40.048Z,13.27
2022-12-08T18:33:08.116Z,13.15
2022-12-08T18:35:34.937Z,12.13
2022-12-08T18:38:01.632Z,13.25
2022-12-08T18:40:28.401Z,12.82
2022-12-08T18:42:55.141Z,13.32
2022-12-08T18:45:22.808Z,12.88
2022-12-08T18:47:50.728Z,13.70
2022-12-08T18:50:18.352Z,14.77
2022-12-08T18:52:46.010Z,17.35
2022-12-08T18:55:13.300Z,15.93
2022-12-08T18:57:42.692Z,16.08
2022-12-08T19:00:13.333Z,16.20
2022-12-08T19:02:40.725Z,14.57
2022-12-08T19:05:09.126Z,15.32
2022-12-08T19:07:36.278Z,15.73
2022-12-08T19:10:04.273Z,14.82
2022-12-08T19:12:31.144Z,14.65
2022-12-08T19:14:58.152Z,14.90
2022-12-08T19:17:25.812Z,15.02
2022-12-08T19:19:52.497Z,16.80
2022-12-08T19:22:19.143Z,15.80
2022-12-08T19:24:46.105Z,15.82
2022-12-08T19:27:12.815Z,15.88
2022-12-08T19:29:39.522Z,15.95
2022-12-08T19:32:06.228Z,15.45
2022-12-08T19:34:32.889Z,15.95
2022-12-08T19:36:59.572Z,15.27
2022-12-08T19:39:44.736Z,15.40
2022-12-08T19:42:36.238Z,15.77
2022-12-08T19:45:09.981Z,16.52
2022-12-08T19:47:36.679Z,15.55
2022-12-08T19:50:23.664Z,15.77
2022-12-08T19:52:50.381Z,16.60
2022-12-08T19:55:17.134Z,17.20
2022-12-08T19:57:43.762Z,16.95
2022-12-08T20:00:12.502Z,16.85
2022-12-08T20:02:39.318Z,17.95
2022-12-08T20:05:06.411Z,17.20
2022-12-08T20:07:33.927Z,18.45
2022-12-08T20:10:00.675Z,17.83
2022-12-08T20:12:27.485Z,18.73
2022-12-08T20:14:54.130Z,19.48
2022-12-08T20:17:20.942Z,18.15
2022-12-08T20:19:47.654Z,18.27
2022-12-08T20:22:14.551Z,19.23
2022-12-08T20:24:41.308Z,19.42
2022-12-08T20:27:08.347Z,18.80
2022-12-08T20:29:35.052Z,18.40
2022-12-08T20:32:01.748Z,17.50
2022-12-08T20:34:28.479Z,17.48
2022-12-08T20:36:56.185Z,17.50
2022-12-08T20:39:22.892Z,17.13
2022-12-08T20:41:50.025Z,15.98
2022-12-08T20:44:16.776Z,16.67
2022-12-08T20:46:49.060Z,16.80
2022-12-08T20:49:16.392Z,16.65
2022-12-08T20:51:44.170Z,16.15
2022-12-08T20:54:11.490Z,16.38
2022-12-08T20:56:42.097Z,16.73
2022-12-08T20:59:17.816Z,15.15
2022-12-08T21:01:44.669Z,17.27
2022-12-08T21:04:13.063Z,15.80
2022-12-08T21:06:40.045Z,16.35
2022-12-08T21:09:07.301Z,15.95
2022-12-08T21:11:34.488Z,18.40
2022-12-08T21:14:01.556Z,17.65
2022-12-08T21:16:28.418Z,20.95
2022-12-08T21:18:55.309Z,17.85
2022-12-08T21:21:22.085Z,20.65
2022-12-08T21:23:48.936Z,21.33
2022-12-08T21:26:18.707Z,19.23
2022-12-08T21:28:46.272Z,19.10
2022-12-08T21:31:17.430Z,19.90
2022-12-08T21:33:44.533Z,20.45
2022-12-08T21:36:14.013Z,19.38
2022-12-08T21:38:40.863Z,19.80
2022-12-08T21:41:11.765Z,18.50
2022-12-08T21:43:39.408Z,19.48
2022-12-08T21:46:06.581Z,18.65
2022-12-08T21:48:33.628Z,19.83
2022-12-08T21:51:05.074Z,19.05
2022-12-08T21:53:32.088Z,20.02
2022-12-08T21:55:59.117Z,21.38
2022-12-08T21:58:26.440Z,20.15
2022-12-08T22:00:53.440Z,19.38
2022-12-08T22:03:20.342Z,20.27
2022-12-08T22:05:47.429Z,20.30
2022-12-08T22:08:14.370Z,19.00
2022-12-08T22:10:46.295Z,19.85
2022-12-08T22:13:13.198Z,18.05
2022-12-08T22:15:39.918Z,18.83
2022-12-08T22:18:07.014Z,18.73
2022-12-08T22:20:33.794Z,18.30
2022-12-08T22:23:01.249Z,17.45
2022-12-08T22:25:28.103Z,17.88
2022-12-08T22:27:55.130Z,17.67
2022-12-08T22:30:22.110Z,18.25
2022-12-08T22:32:49.011Z,18.65
2022-12-08T22:35:15.957Z,19.48
2022-12-08T22:37:42.833Z,17.63
2022-12-08T22:40:11.464Z,17.70
2022-12-08T22:42:38.658Z,18.08
2022-12-08T22:45:06.219Z,17.60
2022-12-08T22:47:33.548Z,18.25
2022-12-08T22:50:00.869Z,16.67
2022-12-08T22:52:28.190Z,17.45
2022-12-08T22:54:55.214Z,17.30
2022-12-08T22:57:21.886Z,18.30
2022-12-08T22:59:48.517Z,17.27
2022-12-08T23:02:15.170Z,17.02
2022-12-08T23:04:42.156Z,17.85
2022-12-08T23:07:09.035Z,18.83
2022-12-08T23:09:35.821Z,17.58
2022-12-08T23:12:03.079Z,17.48
2022-12-08T23:14:30.006Z,18.10
2022-12-08T23:16:56.813Z,18.80
2022-12-08T23:19:23.576Z,19.10
2022-12-08T23:21:50.343Z,18.13
2022-12-08T23:24:16.995Z,19.70
2022-12-08T23:26:43.832Z,18.73
2022-12-08T23:29:10.550Z,19.88
2022-12-08T23:31:38.473Z,19.73
2022-12-08T23:34:05.508Z,19.00
2022-12-08T23:36:32.184Z,19.10
2022-12-08T23:38:58.880Z,19.40
2022-12-08T23:41:25.500Z,18.27
2022-12-08T23:43:52.566Z,20.10
2022-12-08T23:46:21.750Z,20.23
2022-12-08T23:48:49.125Z,18.83
2022-12-08T23:51:16.826Z,20.52
2022-12-08T23:53:43.741Z,19.67
2022-12-08T23:56:12.887Z,18.85
2022-12-08T23:58:40.652Z,21.17
